createdAt,value
2022-12-25T00:01:13.582Z,3.53
2022-12-25T00:03:40.744Z,3.73
2022-12-25T00:06:08.026Z,4.87
2022-12-25T00:08:35.334Z,3.90
2022-12-25T00:11:08.828Z,4.80
2022-12-25T00:13:35.882Z,3.23
2022-12-25T00:16:10.799Z,3.70
2022-12-25T00:18:37.905Z,4.27
2022-12-25T00:21:06.704Z,3.57
2022-12-25T00:23:35.107Z,3.40
2022-12-25T00:26:09.498Z,4.27
2022-12-25T00:28:36.598Z,3.30
2022-12-25T00:31:12.020Z,3.50
2022-12-25T00:33:41.013Z,3.60
2022-12-25T00:36:10.437Z,3.43
2022-12-25T00:38:39.410Z,4.30
2022-12-25T00:41:11.348Z,3.27
2022-12-25T00:43:38.706Z,4.03
2022-12-25T00:46:07.006Z,3.63
2022-12-25T00:48:34.971Z,4.23
2022-12-25T00:51:04.935Z,3.10
2022-12-25T00:53:32.478Z,3.67
2022-12-25T00:56:01.779Z,3.47
2022-12-25T00:58:31.216Z,3.73
2022-12-25T01:00:58.401Z,4.10
2022-12-25T01:03:26.665Z,3.90
2022-12-25T01:06:02.592Z,3.77
2022-12-25T01:08:31.948Z,3.60
2022-12-25T01:11:04.933Z,4.23
2022-12-25T01:13:34.800Z,3.30
2022-12-25T01:16:12.144Z,3.30
2022-12-25T01:18:39.267Z,3.77
2022-12-25T01:21:07.869Z,2.93
2022-12-25T01:23:35.228Z,3.40
2022-12-25T01:26:06.637Z,3.57
2022-12-25T01:28:33.858Z,3.07
2022-12-25T01:31:00.900Z,3.83
2022-12-25T01:33:28.196Z,3.07
2022-12-25T01:35:55.288Z,3.00
2022-12-25T01:38:22.388Z,2.73
2022-12-25T01:40:49.380Z,3.00
2022-12-25T01:43:31.284Z,3.00
2022-12-25T01:45:59.090Z,3.20
2022-12-25T01:48:34.115Z,3.17
2022-12-25T01:51:18.272Z,3.13
2022-12-25T01:53:45.288Z,3.30
2022-12-25T01:56:12.574Z,3.13
2022-12-25T01:58:39.883Z,3.40
2022-12-25T02:01:08.066Z,3.07
2022-12-25T02:03:35.050Z,2.70
2022-12-25T02:06:03.903Z,2.80
2022-12-25T02:08:31.110Z,3.53
2022-12-25T02:10:58.299Z,3.07
2022-12-25T02:13:25.389Z,2.30
2022-12-25T02:16:12.660Z,2.60
2022-12-25T02:18:45.866Z,2.67
2022-12-25T02:21:50.479Z,2.70
2022-12-25T02:24:35.614Z,2.57
2022-12-25T02:27:11.308Z,2.20
2022-12-25T02:29:58.619Z,2.43
2022-12-25T02:32:28.707Z,2.63
2022-12-25T02:35:13.097Z,2.13
2022-12-25T02:38:07.188Z,2.70
2022-12-25T02:40:41.189Z,2.10
2022-12-25T02:43:52.817Z,2.40
2022-12-25T02:46:42.443Z,2.20
2022-12-25T02:49:33.759Z,2.20
2022-12-25T02:52:41.401Z,2.10
2022-12-25T02:55:41.139Z,2.03
2022-12-25T02:58:32.052Z,2.33
2022-12-25T03:01:26.605Z,2.33
2022-12-25T03:04:15.155Z,2.03
2022-12-25T03:06:57.069Z,1.80
2022-12-25T03:09:47.720Z,1.97
2022-12-25T03:12:31.440Z,2.33
2022-12-25T03:15:17.155Z,2.00
2022-12-25T03:17:44.276Z,1.80
2022-12-25T03:20:30.762Z,2.00
2022-12-25T03:23:16.313Z,2.10
2022-12-25T03:26:02.249Z,2.20
2022-12-25T03:28:29.300Z,2.47
2022-12-25T03:31:13.388Z,1.90
2022-12-25T03:34:36.283Z,2.20
2022-12-25T03:37:34.169Z,2.03
2022-12-25T03:40:44.518Z,2.10
2022-12-25T03:43:59.401Z,2.17
2022-12-25T03:46:50.877Z,1.87
2022-12-25T03:50:00.956Z,1.90
2022-12-25T03:52:48.712Z,1.93
2022-12-25T03:55:36.137Z,1.70
2022-12-25T03:58:21.532Z,2.20
2022-12-25T04:01:07.300Z,1.90
2022-12-25T04:03:52.911Z,2.07
2022-12-25T04:06:38.282Z,1.90
2022-12-25T04:09:24.210Z,1.80
2022-12-25T04:12:09.490Z,1.70
2022-12-25T04:14:55.021Z,2.17
2022-12-25T04:17:40.555Z,2.17
2022-12-25T04:20:26.652Z,1.80
2022-12-25T04:23:12.596Z,2.50
2022-12-25T04:25:58.180Z,1.57
2022-12-25T04:28:43.602Z,1.80
2022-12-25T04:31:29.242Z,1.90
2022-12-25T04:34:14.659Z,1.80
2022-12-25T04:36:41.668Z,2.03
2022-12-25T04:39:09.672Z,2.03
2022-12-25T04:41:36.646Z,2.07
2022-12-25T04:44:03.791Z,2.10
2022-12-25T04:46:30.841Z,1.90
2022-12-25T04:48:58.199Z,2.10
2022-12-25T04:51:26.148Z,1.77
2022-12-25T04:53:54.132Z,1.90
2022-12-25T04:56:22.070Z,2.03
2022-12-25T04:58:49.570Z,1.80
2022-12-25T05:01:16.910Z,1.90
2022-12-25T05:03:44.098Z,1.90
2022-12-25T05:06:11.676Z,2.03
2022-12-25T05:08:38.735Z,2.00
2022-12-25T05:11:10.430Z,1.90
2022-12-25T05:13:38.039Z,2.23
2022-12-25T05:16:07.195Z,2.43
2022-12-25T05:18:34.287Z,1.80
2022-12-25T05:21:01.432Z,2.43
2022-12-25T05:23:28.425Z,1.97
2022-12-25T05:25:55.506Z,2.07
2022-12-25T05:28:22.550Z,2.10
2022-12-25T05:30:49.704Z,1.90
2022-12-25T05:33:16.934Z,2.03
2022-12-25T05:35:44.005Z,2.20
2022-12-25T05:38:11.012Z,2.10
2022-12-25T05:40:40.141Z,2.20
2022-12-25T05:43:08.026Z,2.20
2022-12-25T05:45:35.188Z,2.13
2022-12-25T05:48:02.277Z,2.60
2022-12-25T05:50:29.586Z,2.13
2022-12-25T05:52:57.214Z,2.43
2022-12-25T05:55:26.055Z,1.77
2022-12-25T05:57:53.026Z,2.43
2022-12-25T06:00:20.605Z,2.33
2022-12-25T06:02:47.766Z,2.40
2022-12-25T06:05:14.927Z,1.90
2022-12-25T06:07:44.282Z,2.10
2022-12-25T06:10:11.508Z,2.27
2022-12-25T06:12:38.566Z,2.20
2022-12-25T06:15:06.321Z,2.00
2022-12-25T06:17:33.313Z,2.37
2022-12-25T06:20:00.399Z,2.03
2022-12-25T06:22:33.774Z,2.60
2022-12-25T06:25:01.206Z,2.40
2022-12-25T06:27:28.670Z,1.80
2022-12-25T06:29:56.118Z,2.13
2022-12-25T06:32:23.145Z,2.30
2022-12-25T06:34:50.113Z,2.00
2022-12-25T06:37:17.115Z,2.20
2022-12-25T06:39:44.235Z,2.83
2022-12-25T06:42:11.253Z,2.80
2022-12-25T06:44:38.759Z,2.40
2022-12-25T06:47:06.084Z,2.23
2022-12-25T06:49:33.051Z,2.10
2022-12-25T06:52:00.034Z,2.77
2022-12-25T06:54:27.734Z,2.80
2022-12-25T06:56:54.732Z,2.50
2022-12-25T06:59:22.205Z,2.20
2022-12-25T07:01:58.338Z,2.40
2022-12-25T07:04:38.153Z,2.47
2022-12-25T07:07:09.341Z,2.37
2022-12-25T07:09:39.054Z,2.57
2022-12-25T07:12:23.676Z,2.93
2022-12-25T07:14:53.604Z,2.30
2022-12-25T07:17:21.059Z,2.30
2022-12-25T07:19:48.110Z,2.67
2022-12-25T07:22:16.367Z,2.47
2022-12-25T07:24:43.650Z,2.47
2022-12-25T07:27:10.960Z,2.33
2022-12-25T07:29:37.981Z,2.47
2022-12-25T07:32:05.340Z,2.70
2022-12-25T07:34:32.370Z,2.30
2022-12-25T07:36:59.329Z,2.10
2022-12-25T07:39:26.303Z,2.60
2022-12-25T07:41:53.313Z,2.30
2022-12-25T07:44:20.297Z,2.03
2022-12-25T07:46:47.609Z,2.60
2022-12-25T07:49:14.662Z,3.23
2022-12-25T07:51:41.608Z,2.67
2022-12-25T07:54:08.624Z,2.97
2022-12-25T07:56:35.700Z,2.40
2022-12-25T07:59:02.805Z,1.90
2022-12-25T08:01:30.537Z,2.50
2022-12-25T08:04:00.585Z,2.47
2022-12-25T08:06:33.724Z,2.97
2022-12-25T08:09:09.571Z,2.47
2022-12-25T08:11:37.425Z,2.77
2022-12-25T08:14:07.435Z,3.60
2022-12-25T08:16:35.064Z,2.30
2022-12-25T08:19:02.039Z,2.40
2022-12-25T08:21:28.970Z,2.60
2022-12-25T08:23:55.999Z,2.60
2022-12-25T08:26:23.609Z,2.77
2022-12-25T08:28:51.524Z,3.10
2022-12-25T08:31:23.780Z,2.10
2022-12-25T08:33:52.965Z,2.73
2022-12-25T08:36:20.725Z,1.97
2022-12-25T08:38:47.872Z,2.87
2022-12-25T08:41:16.374Z,3.23
2022-12-25T08:43:43.793Z,3.00
2022-12-25T08:46:11.362Z,1.63
2022-12-25T08:48:38.471Z,2.50
2022-12-25T08:51:08.598Z,2.30
2022-12-25T08:53:35.646Z,1.80
2022-12-25T08:56:04.647Z,2.70
2022-12-25T08:58:32.207Z,2.47
2022-12-25T09:00:59.822Z,3.03
2022-12-25T09:03:27.150Z,3.23
2022-12-25T09:05:55.271Z,3.97
2022-12-25T09:08:22.430Z,3.60
2022-12-25T09:10:49.628Z,3.90
2022-12-25T09:13:16.966Z,3.60
2022-12-25T09:15:44.051Z,3.77
2022-12-25T09:18:11.992Z,4.27
2022-12-25T09:20:39.257Z,3.70
2022-12-25T09:23:13.578Z,3.80
2022-12-25T09:25:41.303Z,3.20
2022-12-25T09:28:08.290Z,4.13
2022-12-25T09:30:35.246Z,2.63
2022-12-25T09:33:02.280Z,4.40
2022-12-25T09:35:29.335Z,5.00
2022-12-25T09:37:56.319Z,4.20
2022-12-25T09:40:25.973Z,3.50
2022-12-25T09:42:55.059Z,3.47
2022-12-25T09:45:30.067Z,3.70
2022-12-25T09:47:57.531Z,3.20
2022-12-25T09:50:42.075Z,3.70
2022-12-25T09:53:25.635Z,2.93
2022-12-25T09:56:09.767Z,4.60
2022-12-25T09:58:36.936Z,5.70
2022-12-25T10:01:12.956Z,4.27
2022-12-25T10:04:01.952Z,4.60
2022-12-25T10:06:32.167Z,4.10
2022-12-25T10:09:17.741Z,4.87
2022-12-25T10:11:59.694Z,5.00
2022-12-25T10:14:51.069Z,4.30
2022-12-25T10:17:21.144Z,3.80
2022-12-25T10:20:08.767Z,3.10
2022-12-25T10:23:06.730Z,3.67
2022-12-25T10:25:36.229Z,2.57
2022-12-25T10:28:11.038Z,3.70
2022-12-25T10:30:39.346Z,3.47
2022-12-25T10:33:06.294Z,5.53
2022-12-25T10:35:33.309Z,5.37
2022-12-25T10:38:03.431Z,4.40
2022-12-25T10:41:00.207Z,4.23
2022-12-25T10:43:54.134Z,3.93
2022-12-25T10:46:23.719Z,4.13
2022-12-25T10:49:00.051Z,2.93
2022-12-25T10:51:45.329Z,4.47
2022-12-25T10:54:28.516Z,6.17
2022-12-25T10:57:09.011Z,3.87
2022-12-25T10:59:43.450Z,5.83
2022-12-25T11:02:36.499Z,4.90
2022-12-25T11:05:09.748Z,4.83
2022-12-25T11:07:50.998Z,5.30
2022-12-25T11:10:38.245Z,4.77
2022-12-25T11:13:20.233Z,4.83
2022-12-25T11:15:49.552Z,5.70
2022-12-25T11:18:30.218Z,6.67
2022-12-25T11:21:00.245Z,5.63
2022-12-25T11:23:31.575Z,4.97
2022-12-25T11:26:05.889Z,4.40
2022-12-25T11:28:35.740Z,6.60
2022-12-25T11:31:22.269Z,6.47
2022-12-25T11:34:18.861Z,5.27
2022-12-25T11:36:48.245Z,4.40
2022-12-25T11:39:22.827Z,7.60
2022-12-25T11:41:53.661Z,5.90
2022-12-25T11:44:38.410Z,6.70
2022-12-25T11:47:26.971Z,5.50
2022-12-25T11:50:23.775Z,7.10
2022-12-25T11:52:52.062Z,6.47
2022-12-25T11:55:48.282Z,7.33
2022-12-25T11:58:27.690Z,7.53
2022-12-25T12:00:57.410Z,6.80
2022-12-25T12:03:38.817Z,6.57
2022-12-25T12:06:06.103Z,5.80
2022-12-25T12:08:34.916Z,5.17
2022-12-25T12:11:18.824Z,5.97
2022-12-25T12:14:04.637Z,6.37
2022-12-25T12:16:32.030Z,6.67
2022-12-25T12:19:00.311Z,5.57
2022-12-25T12:21:31.257Z,7.63
2022-12-25T12:24:09.502Z,6.60
2022-12-25T12:26:41.036Z,5.70
2022-12-25T12:29:30.044Z,6.13
2022-12-25T12:32:02.589Z,6.60
2022-12-25T12:34:33.025Z,10.63
2022-12-25T12:37:05.138Z,4.60
2022-12-25T12:39:38.652Z,5.97
2022-12-25T12:42:18.860Z,8.20
2022-12-25T12:44:47.495Z,4.50
2022-12-25T12:47:37.085Z,6.43
2022-12-25T12:50:05.795Z,5.57
2022-12-25T12:52:36.015Z,7.10
2022-12-25T12:55:13.410Z,7.53
2022-12-25T12:57:41.336Z,8.60
2022-12-25T13:00:17.986Z,6.37
2022-12-25T13:03:07.874Z,5.50
2022-12-25T13:05:54.421Z,5.40
2022-12-25T13:08:30.919Z,4.93
2022-12-25T13:11:16.734Z,5.67
2022-12-25T13:13:45.595Z,6.40
2022-12-25T13:16:36.291Z,6.07
2022-12-25T13:19:14.001Z,5.50
2022-12-25T13:21:41.146Z,5.53
2022-12-25T13:24:20.854Z,5.37
2022-12-25T13:26:47.921Z,5.90
2022-12-25T13:29:29.497Z,5.97
2022-12-25T13:31:58.195Z,2.10
2022-12-25T13:34:39.163Z,5.97
2022-12-25T13:37:17.969Z,6.27
2022-12-25T13:39:55.763Z,4.40
2022-12-25T13:42:29.941Z,4.50
2022-12-25T13:45:06.522Z,3.70
2022-12-25T13:47:39.895Z,4.70
2022-12-25T13:50:33.583Z,4.13
2022-12-25T13:53:15.805Z,4.83
2022-12-25T13:55:47.356Z,5.00
2022-12-25T13:58:24.114Z,4.57
2022-12-25T14:00:54.233Z,4.90
2022-12-25T14:03:36.693Z,4.67
2022-12-25T14:06:17.501Z,4.83
2022-12-25T14:08:45.278Z,4.07
2022-12-25T14:11:16.446Z,3.37
2022-12-25T14:13:45.473Z,2.30
2022-12-25T14:16:17.305Z,4.20
2022-12-25T14:18:55.776Z,3.30
2022-12-25T14:21:35.188Z,4.20
2022-12-25T14:24:02.305Z,4.10
2022-12-25T14:26:32.960Z,4.47
2022-12-25T14:29:05.738Z,4.47
2022-12-25T14:31:33.823Z,4.07
2022-12-25T14:34:03.254Z,2.90
2022-12-25T14:36:31.536Z,7.60
2022-12-25T14:39:00.552Z,4.37
2022-12-25T14:41:39.417Z,3.77
2022-12-25T14:44:27.144Z,3.17
2022-12-25T14:47:24.211Z,3.27
2022-12-25T14:49:53.505Z,3.83
2022-12-25T14:52:23.563Z,4.07
2022-12-25T14:55:16.558Z,3.90
2022-12-25T14:57:50.172Z,4.80
2022-12-25T15:00:38.073Z,4.60
2022-12-25T15:03:21.036Z,4.67
2022-12-25T15:05:58.826Z,3.93
2022-12-25T15:08:26.393Z,3.67
2022-12-25T15:11:00.928Z,3.70
2022-12-25T15:13:30.010Z,3.80
2022-12-25T15:16:17.232Z,4.00
2022-12-25T15:18:46.283Z,4.40
2022-12-25T15:21:33.094Z,4.23
2022-12-25T15:24:00.866Z,3.97
2022-12-25T15:26:30.074Z,5.20
2022-12-25T15:28:57.725Z,5.00
2022-12-25T15:31:27.530Z,4.47
2022-12-25T15:33:56.624Z,4.77
2022-12-25T15:36:24.595Z,4.60
2022-12-25T15:38:51.907Z,5.93
2022-12-25T15:41:57.463Z,5.63
2022-12-25T15:44:25.514Z,4.63
2022-12-25T15:46:53.053Z,4.83
2022-12-25T15:49:20.153Z,4.63
2022-12-25T15:51:50.116Z,4.40
2022-12-25T15:54:17.399Z,3.30
2022-12-25T15:57:05.354Z,3.37
2022-12-25T15:59:33.312Z,4.00
2022-12-25T16:02:02.221Z,4.13
2022-12-25T16:04:31.427Z,3.73
2022-12-25T16:06:59.662Z,3.67
2022-12-25T16:09:27.736Z,3.60
2022-12-25T16:11:54.769Z,4.03
2022-12-25T16:14:22.005Z,3.73
2022-12-25T16:16:49.108Z,4.40
2022-12-25T16:19:16.135Z,4.47
2022-12-25T16:21:45.609Z,4.00
2022-12-25T16:24:14.186Z,3.87
2022-12-25T16:26:41.407Z,4.23
2022-12-25T16:29:08.763Z,3.70
2022-12-25T16:31:39.241Z,4.33
2022-12-25T16:34:07.752Z,3.80
2022-12-25T16:36:35.723Z,4.60
2022-12-25T16:39:03.788Z,4.50
2022-12-25T16:41:30.854Z,4.00
2022-12-25T16:43:57.886Z,5.63
2022-12-25T16:46:25.016Z,5.30
2022-12-25T16:48:52.024Z,4.80
2022-12-25T16:51:21.027Z,5.30
2022-12-25T16:53:48.278Z,4.60
2022-12-25T16:56:20.797Z,4.77
2022-12-25T16:58:48.227Z,4.63
2022-12-25T17:01:18.112Z,4.50
2022-12-25T17:03:45.632Z,4.90
2022-12-25T17:06:17.433Z,4.73
2022-12-25T17:08:44.528Z,4.57
2022-12-25T17:11:12.842Z,5.17
2022-12-25T17:13:40.021Z,3.10
2022-12-25T17:16:18.602Z,3.70
2022-12-25T17:18:46.000Z,3.70
2022-12-25T17:21:14.826Z,3.40
2022-12-25T17:23:42.027Z,2.60
2022-12-25T17:26:09.056Z,3.23
2022-12-25T17:28:36.095Z,4.87
2022-12-25T17:31:08.570Z,3.10
2022-12-25T17:33:37.255Z,3.03
2022-12-25T17:36:10.903Z,2.97
2022-12-25T17:38:38.611Z,3.30
2022-12-25T17:41:08.255Z,3.17
2022-12-25T17:43:37.325Z,3.20
2022-12-25T17:46:07.167Z,3.50
2022-12-25T17:48:37.977Z,3.37
2022-12-25T17:51:07.476Z,3.30
2022-12-25T17:53:39.201Z,3.50
2022-12-25T17:56:07.400Z,3.27
2022-12-25T17:58:34.458Z,3.50
2022-12-25T18:01:09.999Z,3.77
2022-12-25T18:03:37.133Z,3.10
2022-12-25T18:06:05.469Z,2.93
2022-12-25T18:08:38.894Z,3.23
2022-12-25T18:11:11.715Z,2.60
2022-12-25T18:13:40.565Z,1.97
2022-12-25T18:16:08.562Z,2.90
2022-12-25T18:18:36.283Z,2.10
2022-12-25T18:21:03.339Z,2.70
2022-12-25T18:23:30.515Z,2.83
2022-12-25T18:26:01.984Z,2.87
2022-12-25T18:28:29.679Z,3.93
2022-12-25T18:30:56.732Z,2.90
2022-12-25T18:33:24.240Z,2.13
2022-12-25T18:35:56.465Z,2.23
2022-12-25T18:38:23.520Z,3.00
2022-12-25T18:40:50.544Z,2.90
2022-12-25T18:43:17.941Z,4.23
2022-12-25T18:45:45.073Z,2.60
2022-12-25T18:48:12.168Z,2.80
2022-12-25T18:50:41.211Z,3.20
2022-12-25T18:53:08.525Z,3.00
2022-12-25T18:55:35.619Z,2.50
2022-12-25T18:58:02.676Z,1.70
2022-12-25T19:00:30.087Z,3.17
2022-12-25T19:02:59.101Z,1.80
2022-12-25T19:05:26.809Z,2.93
2022-12-25T19:07:53.941Z,3.07
2022-12-25T19:10:20.939Z,2.90
2022-12-25T19:12:48.252Z,2.83
2022-12-25T19:15:15.314Z,2.70
2022-12-25T19:17:42.290Z,2.57
2022-12-25T19:20:09.810Z,2.83
2022-12-25T19:22:36.820Z,2.87
2022-12-25T19:25:04.613Z,2.00
2022-12-25T19:27:31.728Z,2.60
2022-12-25T19:29:58.675Z,2.80
2022-12-25T19:32:25.670Z,4.03
2022-12-25T19:34:53.738Z,3.10
2022-12-25T19:37:20.729Z,3.13
2022-12-25T19:39:47.774Z,3.13
2022-12-25T19:42:16.478Z,2.47
2022-12-25T19:44:43.851Z,3.97
2022-12-25T19:47:11.336Z,3.00
2022-12-25T19:49:40.794Z,2.27
2022-12-25T19:52:07.979Z,2.77
2022-12-25T19:54:35.004Z,2.90
2022-12-25T19:57:02.265Z,2.50
2022-12-25T19:59:29.337Z,3.07
2022-12-25T20:01:56.671Z,2.67
2022-12-25T20:04:23.856Z,1.90
2022-12-25T20:06:50.989Z,3.23
2022-12-25T20:09:21.481Z,3.17
2022-12-25T20:11:48.818Z,4.27
2022-12-25T20:14:16.612Z,2.87
2022-12-25T20:16:44.721Z,2.67
2022-12-25T20:19:13.571Z,2.73
2022-12-25T20:21:41.371Z,2.73
2022-12-25T20:24:10.909Z,2.43
2022-12-25T20:26:39.004Z,2.63
2022-12-25T20:29:07.287Z,2.53
2022-12-25T20:31:35.912Z,2.60
2022-12-25T20:34:11.051Z,3.50
2022-12-25T20:36:38.458Z,3.37
2022-12-25T20:39:11.247Z,3.03
2022-12-25T20:41:38.654Z,2.80
2022-12-25T20:44:06.849Z,3.13
2022-12-25T20:46:34.008Z,3.00
2022-12-25T20:49:02.432Z,2.50
2022-12-25T20:51:29.440Z,2.80
2022-12-25T20:53:56.807Z,3.17
2022-12-25T20:56:25.683Z,2.63
2022-12-25T20:58:57.352Z,2.03
2022-12-25T21:01:24.705Z,2.20
2022-12-25T21:03:52.280Z,2.17
2022-12-25T21:06:19.715Z,2.53
2022-12-25T21:08:46.696Z,1.97
2022-12-25T21:11:15.645Z,3.10
2022-12-25T21:13:45.400Z,1.50
2022-12-25T21:16:18.875Z,1.97
2022-12-25T21:18:46.930Z,2.90
2022-12-25T21:21:14.747Z,1.77
2022-12-25T21:23:42.152Z,2.00
2022-12-25T21:26:19.164Z,1.50
2022-12-25T21:28:50.721Z,2.53
2022-12-25T21:31:18.152Z,2.40
2022-12-25T21:33:55.190Z,2.43
2022-12-25T21:36:33.836Z,1.93
2022-12-25T21:39:02.347Z,1.53
2022-12-25T21:41:31.647Z,1.57
2022-12-25T21:43:59.056Z,2.07
2022-12-25T21:46:26.821Z,2.13
2022-12-25T21:48:54.334Z,2.30
2022-12-25T21:51:43.122Z,2.33
2022-12-25T21:54:11.619Z,2.30
2022-12-25T21:56:44.589Z,2.50
2022-12-25T21:59:15.881Z,1.83
2022-12-25T22:01:43.783Z,2.00
2022-12-25T22:04:12.296Z,2.10
2022-12-25T22:06:57.765Z,2.47
2022-12-25T22:09:25.102Z,1.47
2022-12-25T22:12:10.812Z,2.40
2022-12-25T22:15:02.832Z,2.13
2022-12-25T22:17:56.781Z,2.30
2022-12-25T22:20:30.717Z,2.23
2022-12-25T22:22:58.415Z,2.10
2022-12-25T22:25:25.804Z,2.40
2022-12-25T22:27:53.296Z,2.47
2022-12-25T22:30:23.828Z,2.57
2022-12-25T22:32:52.020Z,2.23
2022-12-25T22:35:20.144Z,2.13
2022-12-25T22:37:48.354Z,2.50
2022-12-25T22:40:17.514Z,2.30
2022-12-25T22:42:44.566Z,1.50
2022-12-25T22:45:12.208Z,2.60
2022-12-25T22:47:39.510Z,3.10
2022-12-25T22:50:07.286Z,2.10
2022-12-25T22:52:34.448Z,2.03
2022-12-25T22:55:02.598Z,2.30
2022-12-25T22:57:29.609Z,2.67
2022-12-25T22:59:56.621Z,3.20
2022-12-25T23:02:23.938Z,2.70
2022-12-25T23:04:51.069Z,2.50
2022-12-25T23:07:18.131Z,2.10
2022-12-25T23:09:45.257Z,2.20
2022-12-25T23:12:32.303Z,2.90
2022-12-25T23:14:59.329Z,3.07
2022-12-25T23:17:44.859Z,2.93
2022-12-25T23:20:32.673Z,2.70
2022-12-25T23:23:18.490Z,2.80
2022-12-25T23:26:03.916Z,3.00
2022-12-25T23:28:49.574Z,3.00
2022-12-25T23:31:16.845Z,2.30
2022-12-25T23:33:44.072Z,2.47
2022-12-25T23:36:11.140Z,2.27
2022-12-25T23:38:38.320Z,2.90
2022-12-25T23:41:05.505Z,2.43
2022-12-25T23:43:32.457Z,1.93
2022-12-25T23:45:59.698Z,2.90
2022-12-25T23:48:26.813Z,2.73
2022-12-25T23:50:53.844Z,2.80
2022-12-25T23:53:20.843Z,3.33
2022-12-25T23:55:55.034Z,2.90
2022-12-25T23:58:22.757Z,3.23
